CBN9 weather

Tsay Keh Airport
Tsay Keh, British Columbia, Canada

Public forecast

Using degrees Celsius for public forecast. Weather courtesy of forecast.io.

Closest aviation weather report (METAR) to Tsay Keh Airport

Closest report is Mackenzie Airport, 114.1 nm (211.3 km) SSE. Retrieved 2019/10/24 01:00 UTC (40 minutes ago):

CYZY 240100Z AUTO 15008KT 9SM -RA OVC017 02/01 A3023 RMK PRESFR SLP275

Closest aviation forecast (TAF) to Tsay Keh Airport

Closest forecast is Mackenzie Airport, 114.1 nm (211.3 km) SSE. Retrieved 2019-10-24 01:00 UTC (40 minutes ago):

TAF CYZY 240038Z 2401/2409 15008KT P6SM -RA BKN025 OVC040 TEMPO 2401/2403 5SM -RA BR OVC015 FM240300 15008KT P6SM -RA SCT010 OVC020 TEMPO 2403/2409 3SM -RA BR BKN008 OVC020 RMK FCST BASED ON AUTO OBS NXT FCST BY 240700Z